• Join FlightAware (Why Join?)
  • Login
  • US Flag 
09:48AM EST


 

Airport Tracker/Info


-or-


 

Live Flight TrackerFlight Track Log ✈ SWA378 ✈ 21-May-2013 ✈ KLAX - KATL

Flight Track Log - Related Links

Times and Time Zones

All times are in EDT time to prevent confusion due to time zone crossing. See the SWA378 flight status page for this flight to view local times or setup timezone preferences in your user account.

Time Position Orientation Groundspeed Altitude Reporting Facility
EDT Latitude Longitude Course Direction KTS MPH feet Rate Location/Type
01:42PM 33.9333 -118.4667 112° Southeast 181 208 1,700  Level Southern California TRACON
01:43PM 33.8833 -118.5167 220° Southwest 240 276 3,100 1,800 Climbing Southern California TRACON
01:45PM 33.8019 -118.5214 183° South 256 295 5,600 2,400 Climbing Los Angeles Center
01:46PM 33.7244 -118.5219 180° South 273 314 8,700 2,400 Climbing Los Angeles Center
01:47PM 33.6581 -118.4661 145° Southeast 307 353 10,600 2,280 Climbing Los Angeles Center
01:48PM 33.5334 -118.2502 112° Southeast  Level FlightAware Approximate
01:48PM 33.5831 -118.3556 129° Southeast 361 415 13,500  Level Los Angeles Center
01:49PM 33.5311 -118.2447 119° Southeast 391 450 15,900 2,160 Climbing Los Angeles Center
01:50PM 33.5094 -118.1419 104° East 405 466 18,000 2,340 Climbing Los Angeles Center
01:51PM 33.4861 -117.9806 100° East 422 486 20,800 2,460 Climbing Los Angeles Center
01:52PM 33.4389 -117.8178 109° East 434 499 23,200 2,040 Climbing Los Angeles Center
01:53PM 33.3994 -117.6761 108° East 449 517 25,100 1,680 Climbing Los Angeles Center
01:54PM 33.3861 -117.5214 96° East 470 541 26,700 1,500 Climbing Los Angeles Center
01:55PM 33.3753 -117.3622 95° East 480 552 28,200 1,380 Climbing Los Angeles Center
01:56PM 33.3636 -117.1992 95° East 493 567 29,600 1,500 Climbing Los Angeles Center
01:57PM 33.3494 -117.0022 95° East 501 577 31,400 2,040 Climbing Los Angeles Center
01:58PM 33.3381 -116.8406 95° East 494 568 33,900 1,740 Climbing Los Angeles Center
01:59PM 33.3261 -116.6833 95° East 480 552 35,100 960 Climbing Los Angeles Center
02:00PM 33.3144 -116.5264 95° East 474 545 36,000 720 Climbing Los Angeles Center
02:01PM 33.3036 -116.3653 95° East 480 552 36,600 480 Climbing Los Angeles Center
02:02PM 33.2894 -116.2025 96° East 486 559 37,000 180 Climbing Los Angeles Center
02:03PM 33.2761 -116.0344 95° East 502 578 37,000  Level Los Angeles Center
02:04PM 33.2594 -115.8358 96° East 500 575 37,000  Level Los Angeles Center
02:05PM 33.2444 -115.6697 96° East 502 578 37,000  Level Los Angeles Center
02:06PM 33.2306 -115.5036 96° East 502 578 37,000  Level Los Angeles Center
02:07PM 33.2153 -115.3381 96° East 501 577 37,000  Level Los Angeles Center
02:08PM 33.2136 -115.1706 91° East 505 581 37,000  Level Los Angeles Center
02:09PM 33.2089 -115.0053 92° East 500 575 37,000  Level Los Angeles Center
02:11PM 33.1997 -114.8094 93° East 493 567 37,000  Level Los Angeles Center
02:12PM 33.1817 -114.6456 97° East 497 572 37,000  Level Los Angeles Center
02:13PM 33.1656 -114.4836 97° East 493 567 37,000  Level Los Angeles Center
02:14PM 33.1472 -114.3217 98° East 492 566 37,000  Level Los Angeles Center
02:15PM 33.1236 -114.1603 100° East 493 567 37,000  Level Los Angeles Center
02:16PM 33.1053 -114.0194 99° East 495 570 37,000  Level Albuquerque Center
02:17PM 33.0789 -113.8244 99° East 497 572 37,000  Level Albuquerque Center
02:18PM 33.0572 -113.6617 99° East 496 571 37,000  Level Albuquerque Center
02:19PM 33.0353 -113.5003 99° East 495 570 37,000  Level Albuquerque Center
02:20PM 33.0125 -113.3381 99° East 494 568 37,000  Level Albuquerque Center
02:21PM 32.9894 -113.1761 100° East 495 570 37,000  Level Albuquerque Center
02:22PM 32.9667 -113.0139 99° East 494 568 37,000  Level Albuquerque Center
02:23PM 32.9431 -112.8511 100° East 495 570 37,000  Level Albuquerque Center
02:24PM 32.9197 -112.6897 100° East 493 567 37,000  Level Albuquerque Center
02:25PM 32.8958 -112.5300 100° East 490 564 37,000  Level Albuquerque Center
02:26PM 32.8722 -112.3697 100° East 490 564 37,000  Level Albuquerque Center
02:27PM 32.8492 -112.2075 100° East 490 564 37,000  Level Albuquerque Center
02:28PM 32.8203 -112.0164 100° East 490 564 37,000  Level Albuquerque Center
02:29PM 32.7967 -111.8553 100° East 496 571 37,000  Level Albuquerque Center
02:30PM 32.7728 -111.6975 100° East 491 565 37,000  Level Albuquerque Center
02:31PM 32.7483 -111.5394 100° East 490 564 37,000  Level Albuquerque Center
02:32PM 32.7239 -111.3825 100° East 488 562 37,000  Level Albuquerque Center
02:33PM 32.6978 -111.2283 101° East 482 555 37,000  Level Albuquerque Center
02:34PM 32.6669 -111.0378 101° East 489 563 37,000  Level Albuquerque Center
02:35PM 32.6411 -110.8794 101° East 491 565 37,000  Level Albuquerque Center
02:36PM 32.6158 -110.7192 101° East 494 568 37,000  Level Albuquerque Center
02:37PM 32.5889 -110.5583 101° East 498 573 37,000  Level Albuquerque Center
02:38PM 32.5639 -110.3989 100° East 496 571 37,000  Level Albuquerque Center
02:39PM 32.5342 -110.2161 101° East 499 574 37,000  Level Albuquerque Center
02:40PM 32.5067 -110.0586 102° East 496 571 37,000  Level Albuquerque Center
02:41PM 32.4814 -109.9017 101° East 493 567 37,000  Level Albuquerque Center
02:42PM 32.4542 -109.7444 102° East 494 568 37,000  Level Albuquerque Center
02:43PM 32.4194 -109.5533 102° East 502 578 37,000  Level Albuquerque Center
02:44PM 32.3964 -109.4044 100° East 483 556 37,000  Level Albuquerque Center
02:45PM 32.3700 -109.2508 101° East 480 552 37,000  Level Albuquerque Center
02:46PM 32.3431 -109.0956 102° East 483 556 37,000  Level Albuquerque Center
02:47PM 32.3144 -108.9333 102° East 496 571 37,000  Level Albuquerque Center
02:48PM 32.2817 -108.7483 102° East 488 562 37,000  Level Albuquerque Center
02:49PM 32.2533 -108.5914 102° East 491 565 37,000  Level Albuquerque Center
02:50PM 32.2253 -108.4250 101° East 492 566 37,000  Level Albuquerque Center
02:52PM 32.1969 -108.2672 102° East 494 568 37,000  Level Albuquerque Center
02:53PM 32.1683 -108.1108 102° East 490 564 37,000  Level Albuquerque Center
02:54PM 32.1397 -107.9558 102° East 488 562 37,000  Level Albuquerque Center
02:55PM 32.1114 -107.7992 102° East 489 563 37,000  Level Albuquerque Center
02:56PM 32.0808 -107.6456 103° East 487 560 37,000  Level Albuquerque Center
02:57PM 32.0464 -107.4597 102° East 488 562 37,000 -60 Level Albuquerque Center
02:58PM 32.0169 -107.3047 103° East 488 562 36,900  Descending Albuquerque Center
02:59PM 31.9861 -107.1497 103° East 492 566 37,000  Climbing Albuquerque Center
03:00PM 31.9572 -106.9922 102° East 497 572 37,000  Level Albuquerque Center
03:01PM 31.9264 -106.8397 103° East 488 562 37,000  Level Albuquerque Center
03:02PM 31.8967 -106.6856 103° East 485 558 37,000  Level Albuquerque Center
03:03PM 31.8611 -106.5103 103° East 486 559 37,000  Level Albuquerque Center
03:04PM 31.8328 -106.3539 102° East 489 563 37,000  Level Albuquerque Center
03:05PM 31.7986 -106.2011 105° East 489 563 37,000  Level Albuquerque Center
03:06PM 31.7586 -106.0511 107° East 483 556 37,000  Level Albuquerque Center
03:07PM 31.7194 -105.8986 107° East 487 560 37,000  Level Albuquerque Center
03:08PM 31.6736 -105.7142 106° East 491 565 37,000  Level Albuquerque Center
03:09PM 31.6347 -105.5594 106° East 493 567 37,000  Level Albuquerque Center
03:10PM 31.5961 -105.4056 106° East 492 566 37,000  Level Albuquerque Center
03:11PM 31.5572 -105.2506 106° East 492 566 37,000  Level Albuquerque Center
03:12PM 31.5172 -105.0944 107° East 496 571 37,000  Level Albuquerque Center
03:13PM 31.4778 -104.9392 107° East 496 571 37,000  Level Albuquerque Center
03:14PM 31.4375 -104.7847 107° East 495 570 37,000  Level Albuquerque Center
03:15PM 31.3983 -104.6311 107° East 493 567 37,000  Level Albuquerque Center
03:16PM 31.3497 -104.4461 107° East 494 568 37,000  Level Albuquerque Center
03:17PM 31.3092 -104.2922 107° East 494 568 37,000  Level Albuquerque Center
03:18PM 31.2669 -104.1378 108° East 496 571 37,000  Level Albuquerque Center
03:19PM 31.2267 -103.9833 107° East 496 571 37,000  Level Albuquerque Center
03:20PM 31.1858 -103.8300 107° East 495 570 37,000  Level Albuquerque Center
03:21PM 31.1364 -103.6528 108° East 497 572 37,000  Level Albuquerque Center
03:22PM 31.0942 -103.4997 108° East 497 572 37,000  Level Albuquerque Center
03:23PM 31.0517 -103.3461 108° East 498 573 37,000  Level Albuquerque Center
03:24PM 31.0092 -103.1925 108° East 500 575 37,000  Level Albuquerque Center
03:25PM 30.9683 -103.0383 107° East 500 575 37,000  Level Albuquerque Center
03:27PM 30.9261 -102.8822 107° East 505 581 37,000  Level Albuquerque Center
03:28PM 30.8867 -102.7264 106° East 506 582 37,000  Level Albuquerque Center
03:29PM 30.8386 -102.5403 107° East 502 578 37,000  Level Houston Center
03:30PM 30.7989 -102.3867 107° East 502 578 37,000  Level Houston Center
03:31PM 30.7581 -102.2336 107° East 501 577 37,000  Level Houston Center
03:32PM 30.7194 -102.0806 106° East 499 574 37,000  Level Houston Center
03:33PM 30.6703 -101.8958 107° East 502 578 37,000  Level Houston Center
03:34PM 30.6283 -101.7461 108° East 494 568 37,000  Level Houston Center
03:35PM 30.5989 -101.5964 103° East 495 570 37,000  Level Houston Center
03:36PM 30.6075 -101.4342 86° East 500 575 37,000  Level Houston Center
03:37PM 30.6117 -101.2736 88° East 499 574 37,000  Level Houston Center
03:38PM 30.6158 -101.0817 89° East 498 573 37,000  Level Houston Center
03:39PM 30.6194 -100.9183 88° East 502 578 37,000  Level Houston Center
03:40PM 30.6242 -100.7556 88° East 501 577 37,000  Level Houston Center
03:41PM 30.6275 -100.5942 89° East 500 575 37,000  Level Houston Center
03:42PM 30.6317 -100.4308 88° East 502 578 37,000  Level Houston Center
03:43PM 30.6339 -100.2697 89° East 498 573 37,000  Level Houston Center
03:45PM 30.6002 -100.0600 101° East  Level FlightAware Approximate
03:45PM 30.6414 -99.9136 101° East 501 577 37,000  Level Houston Center
03:46PM 30.6389 -99.7536 91° East 496 571 37,000  Level Houston Center
03:47PM 30.6278 -99.5894 94° East 505 581 37,000  Level Houston Center
03:48PM 30.6181 -99.4292 94° East 500 575 37,000  Level Houston Center
03:49PM 30.6078 -99.2683 94° East 500 575 37,000  Level Houston Center
03:50PM 30.5992 -99.1008 93° East 498 573 37,000  Level Houston Center
03:51PM 30.5903 -98.9378 94° East 502 578 37,000  Level Houston Center
03:52PM 30.5822 -98.7475 93° East 503 579 37,000  Level Houston Center
03:53PM 30.5756 -98.5831 93° East 506 582 37,000  Level Houston Center
03:54PM 30.5697 -98.4203 92° East 504 580 37,000  Level Houston Center
03:55PM 30.5617 -98.2569 93° East 503 579 37,000  Level Houston Center
03:57PM 30.5644 -98.0925 89° East 505 581 37,000  Level Houston Center
03:58PM 30.5789 -97.9286 84° East 508 585 37,000  Level Houston Center
03:59PM 30.5964 -97.7397 84° East 503 579 37,000  Level Houston Center
04:00PM 30.6108 -97.5783 84° East 502 578 37,000  Level Houston Center
04:01PM 30.6242 -97.4172 84° East 502 578 37,000  Level Houston Center
04:02PM 30.6381 -97.2567 84° East 502 578 37,000 120 Level Houston Center
04:03PM 30.6525 -97.0933 84° East 510 587 37,300 660 Climbing Houston Center
04:04PM 30.6686 -96.8989 84° East 516 594 38,400 780 Climbing Houston Center
04:05PM 30.6822 -96.7325 85° East 520 598 39,000 240 Climbing Houston Center
04:06PM 30.6958 -96.5672 84° East 513 590 39,000  Level Houston Center
04:07PM 30.7094 -96.4025 84° East 511 588 39,000  Level Houston Center
04:08PM 30.7219 -96.2381 85° East 511 588 39,000  Level Houston Center
04:09PM 30.7344 -96.0739 85° East 509 586 39,000  Level Houston Center
04:10PM 30.7453 -95.9089 86° East 501 577 39,000  Level Houston Center
04:11PM 30.7594 -95.7164 85° East 499 574 39,000  Level Houston Center
04:12PM 30.7722 -95.5553 85° East 500 575 39,000  Level Houston Center
04:13PM 30.7856 -95.3936 84° East 504 580 39,000  Level Houston Center
04:14PM 30.7981 -95.2322 85° East 506 582 39,000  Level Houston Center
04:15PM 30.8089 -95.0692 86° East 508 585 39,000  Level Houston Center
04:16PM 30.8206 -94.9067 85° East 509 586 39,000  Level Houston Center
04:17PM 30.8331 -94.7144 86° East 503 579 39,000  Level Houston Center
04:18PM 30.8442 -94.5536 85° East 503 579 39,000  Level Houston Center
04:19PM 30.8547 -94.3939 86° East 501 577 39,000  Level Houston Center
04:20PM 30.8653 -94.2344 86° East 498 573 39,000  Level Houston Center
04:21PM 30.8739 -94.0775 86° East 493 567 39,000  Level Houston Center
04:22PM 30.8875 -93.8817 85° East 498 573 39,000  Level Houston Center
04:23PM 30.8967 -93.7225 86° East 496 571 39,000  Level Houston Center
04:24PM 30.9061 -93.5622 86° East 494 568 39,000  Level Houston Center
04:26PM 30.9142 -93.4042 87° East 489 563 39,000  Level Houston Center
04:27PM 30.9236 -93.2444 86° East 492 566 39,000  Level Houston Center
04:28PM 30.9331 -93.0828 86° East 497 572 39,000  Level Houston Center
04:29PM 30.9408 -92.8983 87° East 495 570 39,000  Level Houston Center
04:30PM 30.9486 -92.7394 87° East 495 570 39,000  Level Houston Center
04:31PM 30.9561 -92.5811 87° East 495 570 39,000  Level Houston Center
04:32PM 30.9644 -92.4225 86° East 496 571 39,000  Level Houston Center
04:33PM 30.9739 -92.2336 87° East 494 568 39,000  Level Houston Center
04:34PM 30.9822 -92.0767 86° East 491 565 39,000  Level Houston Center
04:35PM 30.9883 -91.9211 87° East 486 559 39,000  Level Houston Center
04:36PM 30.9967 -91.7647 86° East 486 559 39,000  Level Houston Center
04:37PM 31.0025 -91.6092 87° East 485 558 39,000  Level Houston Center
04:38PM 31.0114 -91.4222 87° East 483 556 39,000  Level Houston Center
04:39PM 31.0164 -91.2683 88° East 485 558 39,000  Level Houston Center
04:40PM 31.0231 -91.1128 87° East 482 555 39,000  Level Houston Center
04:41PM 31.0283 -90.9569 88° East 482 555 39,000  Level Houston Center
04:42PM 31.0350 -90.8028 87° East 478 550 39,000  Level Houston Center
04:43PM 31.0406 -90.6178 88° East 476 548 39,000  Level Houston Center
04:44PM 31.0469 -90.4647 87° East 473 544 39,000  Level Houston Center
04:45PM 31.0519 -90.3117 88° East 473 544 39,000  Level Houston Center
04:46PM 31.0567 -90.1597 88° East 470 541 39,000  Level Houston Center
04:47PM 31.0608 -90.0081 88° East 467 537 39,000  Level Houston Center
04:48PM 31.0792 -89.8581 82° East 466 536 39,000  Level Houston Center
04:49PM 31.1106 -89.7097 76° East 468 539 39,000  Level Houston Center
04:50PM 31.1458 -89.5322 77° East 468 539 39,000  Level Houston Center
04:51PM 31.1775 -89.3842 76° East 469 540 39,000  Level Houston Center
04:52PM 31.2072 -89.2361 77° East 468 539 39,000  Level Houston Center
04:53PM 31.2358 -89.0853 77° East 473 544 39,000  Level Houston Center
04:55PM 31.2664 -88.9311 77° East 464 534 39,000  Level Houston Center
04:56PM 31.2950 -88.7808 77° East 472 543 39,000  Level Houston Center
04:57PM 31.3239 -88.6333 77° East 465 535 39,000  Level Houston Center
04:58PM 31.3536 -88.4844 77° East 466 536 39,000  Level Houston Center
04:59PM 31.3894 -88.3053 77° East 468 539 39,000 -480 Level Houston Center
05:00PM 31.4178 -88.1556 77° East 467 537 38,000 -960 Descending Houston Center
05:01PM 31.4747 -88.0219 63° Northeast 464 534 37,100 -960 Descending Houston Center
05:02PM 31.5447 -87.8969 57° Northeast 459 528 36,100 -960 Descending Houston Center
05:03PM 31.6172 -87.7717 56° Northeast 463 533 35,200 -780 Descending Houston Center
05:03PM 31.6519 -87.7225 50° Northeast 455 524 35,000 -180 Descending Atlanta Center
05:04PM 31.7225 -87.5961 57° Northeast 455 524 35,000  Level Atlanta Center
05:05PM 31.7950 -87.4719 55° Northeast 455 524 35,000  Level Atlanta Center
05:06PM 31.8650 -87.3472 57° Northeast 455 524 35,000  Level Atlanta Center
05:07PM 31.9397 -87.2081 58° Northeast 455 524 35,000 -420 Level Atlanta Center
05:08PM 32.0119 -87.0808 56° Northeast 455 524 34,200 -900 Descending Atlanta Center
05:09PM 32.0836 -86.9583 55° Northeast 450 518 33,200 -1,020 Descending Atlanta Center
05:10PM 32.1511 -86.8403 56° Northeast 450 518 32,200 -1,020 Descending Atlanta Center
05:11PM 32.2206 -86.7197 56° Northeast 450 518 31,200 -960 Descending Atlanta Center
05:12PM 32.2853 -86.6186 53° Northeast 439 505 30,300 -1,020 Descending Atlanta Center
05:13PM 32.3461 -86.4975 59° Northeast 432 497 29,200 -660 Descending Atlanta Center
05:14PM 32.4072 -86.3686 61° Northeast 422 486 29,000 -120 Descending Atlanta Center
05:15PM 32.4742 -86.2497 56° Northeast 416 479 29,000  Level Atlanta Center
05:16PM 32.5386 -86.1456 54° Northeast 423 487 29,000 -540 Level Atlanta Center
05:17PM 32.6008 -86.0311 57° Northeast 428 493 28,000 -1,020 Descending Atlanta Center
05:18PM 32.6611 -85.9189 57° Northeast 417 480 27,000 -1,020 Descending Atlanta Center
05:19PM 32.7211 -85.8092 57° Northeast 405 466 26,000 -840 Descending Atlanta Center
05:20PM 32.7875 -85.6894 57° Northeast 411 473 25,400 -1,140 Descending Atlanta Center
05:21PM 32.8581 -85.5622 57° Northeast 436 502 23,800 -2,160 Descending Atlanta Center
05:22PM 32.9242 -85.4394 57° Northeast 444 511 21,100 -2,700 Descending Atlanta Center
05:23PM 32.9881 -85.3192 58° Northeast 439 505 18,500 -2,880 Descending Atlanta Center
05:24PM 33.0603 -85.1964 55° Northeast 419 482 15,400 -2,100 Descending Atlanta Center
05:25PM 33.1322 -85.0981 49° Northeast 402 463 14,300 -720 Descending Atlanta Center
05:26PM 33.1997 -85.0094 48° Northeast 373 429 14,000 -840 Descending Atlanta Center
05:28PM 33.3333 -84.8333 48° Northeast 370 426 12,000 -720 Descending Atlanta TRACON
05:29PM 33.4000 -84.7500 46° Northeast 367 422 12,000  Level Atlanta TRACON
05:30PM 33.4667 -84.6500 51° Northeast 352 405 12,000 -60 Level Atlanta TRACON
05:31PM 33.5167 -84.5833 48° Northeast 287 330 11,900 -480 Descending Atlanta TRACON
05:32PM 33.5500 -84.5000 64° Northeast 262 302 11,000 -1,200 Descending Atlanta TRACON
05:33PM 33.5500 -84.4167 90° East 261 300 9,400 -1,620 Descending Atlanta TRACON
05:34PM 33.5333 -84.3333 103° East 247 284 8,000 -1,320 Descending Atlanta TRACON
05:35PM 33.5500 -84.2500 76° East 232 267 6,900 -1,200 Descending Atlanta TRACON
05:36PM 33.5500 -84.1833 90° East 207 238 5,700 -1,260 Descending Atlanta TRACON
05:37PM 33.5500 -84.1167 90° East 203 234 4,400 -900 Descending Atlanta TRACON
05:38PM 33.6000 -84.1167 360° North 193 222 3,900 -480 Descending Atlanta TRACON
05:39PM 33.6333 -84.1833 301° West 186 214 3,500 -360 Descending Atlanta TRACON
05:40PM 33.6333 -84.2333 270° West 185 213 3,200 -360 Descending Atlanta TRACON
05:41PM 33.6333 -84.3000 270° West 182 209 2,800 -660 Descending Atlanta TRACON
05:42PM 33.6333 -84.3500 270° West 179 206 2,000 -900 Descending Atlanta TRACON
05:44PM 33.6333 -84.4167 292° West  Level FlightAware Approximate
05:51PM 33.6367 -84.4279 292° West  Level Estimated
05:52PM 33.6367 -84.4279 292° West  Level Estimated